createdAt,value
2019-02-12T00:00:24.694Z,67.36
2019-02-12T00:01:24.700Z,67.05
2019-02-12T00:02:24.707Z,67.57
2019-02-12T00:03:24.657Z,67.77
2019-02-12T00:04:24.639Z,67.57
2019-02-12T00:05:24.631Z,67.36
2019-02-12T00:06:24.693Z,67.15
2019-02-12T00:07:24.614Z,67.67
2019-02-12T00:08:24.610Z,67.67
2019-02-12T00:09:24.601Z,67.98
2019-02-12T00:10:24.584Z,67.88
2019-02-12T00:11:24.612Z,67.46
2019-02-12T00:12:24.635Z,67.77
2019-02-12T00:13:24.545Z,67.46
2019-02-12T00:14:24.547Z,67.67
2019-02-12T00:15:24.521Z,67.95
2019-02-12T00:16:24.514Z,68.19
2019-02-12T00:17:24.573Z,68.19
2019-02-12T00:18:24.507Z,68.57
2019-02-12T00:19:24.493Z,68.37
2019-02-12T00:20:24.489Z,68.29
2019-02-12T00:21:24.457Z,68.40
2019-02-12T00:22:24.450Z,68.40
2019-02-12T00:23:24.476Z,68.81
2019-02-12T00:24:24.476Z,68.71
2019-02-12T00:25:24.421Z,68.26
2019-02-12T00:26:24.428Z,69.20
2019-02-12T00:27:24.406Z,68.71
2019-02-12T00:28:24.442Z,69.02
2019-02-12T00:29:24.368Z,69.43
2019-02-12T00:30:24.401Z,69.54
2019-02-12T00:31:24.351Z,69.43
2019-02-12T00:32:24.336Z,69.74
2019-02-12T00:33:24.461Z,69.54
2019-02-12T00:34:24.330Z,69.92
2019-02-12T00:35:24.330Z,69.96
2019-02-12T00:36:24.297Z,70.23
2019-02-12T00:37:24.293Z,69.96
2019-02-12T00:38:24.273Z,70.17
2019-02-12T00:39:24.291Z,70.17
2019-02-12T00:40:24.275Z,70.34
2019-02-12T00:41:24.243Z,70.37
2019-02-12T00:42:24.233Z,70.37
2019-02-12T00:43:24.216Z,70.48
2019-02-12T00:44:24.243Z,70.34
2019-02-12T00:45:24.196Z,70.58
2019-02-12T00:46:24.198Z,70.58
2019-02-12T00:47:24.211Z,70.89
2019-02-12T00:48:24.170Z,71.20
2019-02-12T00:49:24.156Z,71.62
2019-02-12T00:50:24.147Z,71.31
2019-02-12T00:51:24.132Z,71.31
2019-02-12T00:52:24.214Z,71.41
2019-02-12T00:53:24.114Z,71.41
2019-02-12T00:54:24.319Z,71.83
2019-02-12T00:55:24.097Z,71.72
2019-02-12T00:56:24.079Z,71.51
2019-02-12T00:57:24.069Z,71.62
2019-02-12T00:58:24.135Z,71.72
2019-02-12T00:59:24.056Z,71.83
2019-02-12T01:00:24.052Z,71.83
2019-02-12T01:01:24.022Z,71.72
2019-02-12T01:02:24.017Z,71.72
2019-02-12T01:03:24.000Z,72.38
2019-02-12T01:04:24.017Z,72.24
2019-02-12T01:05:24.051Z,72.07
2019-02-12T01:06:23.966Z,72.34
2019-02-12T01:07:23.955Z,72.28
2019-02-12T01:08:23.952Z,72.55
2019-02-12T01:09:23.935Z,72.45
2019-02-12T01:10:23.959Z,72.49
2019-02-12T01:11:23.918Z,73.11
2019-02-12T01:12:23.908Z,72.59
2019-02-12T01:13:23.892Z,73.21
2019-02-12T01:14:23.923Z,72.49
2019-02-12T01:15:23.878Z,72.45
2019-02-12T01:16:23.887Z,73.00
2019-02-12T01:17:23.860Z,73.42
2019-02-12T01:18:23.841Z,73.32
2019-02-12T01:19:23.827Z,73.63
2019-02-12T01:20:23.873Z,73.00
2019-02-12T01:21:26.174Z,73.73
2019-02-12T01:22:23.798Z,73.63
2019-02-12T01:23:23.789Z,73.32
2019-02-12T01:24:23.777Z,73.73
2019-02-12T01:25:23.765Z,73.73
2019-02-12T01:26:23.791Z,73.94
2019-02-12T01:27:23.745Z,73.28
2019-02-12T01:28:23.732Z,73.00
2019-02-12T01:29:23.729Z,73.21
2019-02-12T01:30:23.794Z,73.63
2019-02-12T01:31:23.753Z,73.32
2019-02-12T01:32:23.715Z,73.52
2019-02-12T01:33:23.695Z,72.97
2019-02-12T01:34:23.708Z,73.32
2019-02-12T01:35:23.657Z,73.42
2019-02-12T01:36:23.643Z,73.42
2019-02-12T01:37:23.633Z,73.94
2019-02-12T01:38:23.648Z,73.42
2019-02-12T01:39:23.612Z,73.91
2019-02-12T01:40:23.619Z,73.28
2019-02-12T01:41:23.592Z,73.63
2019-02-12T01:42:23.703Z,73.73
2019-02-12T01:43:23.562Z,74.04
2019-02-12T01:44:23.564Z,73.94
2019-02-12T01:45:23.552Z,73.49
2019-02-12T01:46:23.541Z,73.18
2019-02-12T01:47:23.523Z,73.60
2019-02-12T01:48:23.535Z,73.49
2019-02-12T01:49:23.560Z,73.00
2019-02-12T01:50:23.495Z,73.28
2019-02-12T01:51:23.481Z,73.60
2019-02-12T01:52:23.479Z,74.04
2019-02-12T01:53:23.465Z,73.21
2019-02-12T01:54:23.454Z,73.60
2019-02-12T01:55:23.466Z,73.63
2019-02-12T01:56:23.432Z,73.80
2019-02-12T01:57:23.419Z,73.11
2019-02-12T01:58:23.402Z,73.60
2019-02-12T01:59:23.393Z,73.00
2019-02-12T02:00:23.405Z,73.00
2019-02-12T02:01:23.382Z,73.28
2019-02-12T02:02:23.365Z,72.97
2019-02-12T02:03:23.374Z,73.07
2019-02-12T02:04:23.394Z,73.07
2019-02-12T02:05:23.336Z,73.28
2019-02-12T02:06:23.348Z,73.18
2019-02-12T02:07:23.312Z,72.86
2019-02-12T02:08:23.315Z,72.97
2019-02-12T02:09:23.285Z,72.86
2019-02-12T02:10:23.276Z,72.49
2019-02-12T02:11:23.314Z,73.18
2019-02-12T02:12:23.256Z,72.66
2019-02-12T02:13:23.239Z,72.24
2019-02-12T02:14:23.244Z,72.66
2019-02-12T02:15:23.231Z,72.34
2019-02-12T02:16:23.218Z,72.45
2019-02-12T02:17:23.231Z,72.55
2019-02-12T02:18:23.190Z,72.14
2019-02-12T02:19:23.177Z,72.24
2019-02-12T02:20:23.169Z,72.14
2019-02-12T02:21:23.162Z,72.24
2019-02-12T02:22:23.185Z,72.76
2019-02-12T02:23:23.141Z,72.17
2019-02-12T02:24:23.127Z,72.03
2019-02-12T02:25:23.155Z,72.45
2019-02-12T02:26:23.105Z,71.20
2019-02-12T02:27:23.088Z,71.62
2019-02-12T02:28:23.082Z,71.41
2019-02-12T02:29:23.073Z,71.31
2019-02-12T02:30:23.065Z,71.31
2019-02-12T02:31:23.096Z,71.62
2019-02-12T02:32:23.060Z,71.10
2019-02-12T02:33:23.030Z,71.31
2019-02-12T02:34:23.037Z,70.79
2019-02-12T02:35:23.014Z,71.10
2019-02-12T02:36:23.029Z,71.20
2019-02-12T02:37:22.988Z,71.51
2019-02-12T02:38:22.977Z,71.31
2019-02-12T02:39:22.958Z,71.31
2019-02-12T02:40:22.949Z,71.41
2019-02-12T02:41:22.952Z,71.59
2019-02-12T02:42:22.952Z,71.72
2019-02-12T02:43:22.923Z,71.72
2019-02-12T02:44:22.915Z,72.14
2019-02-12T02:45:22.899Z,72.14
2019-02-12T02:46:22.895Z,72.34
2019-02-12T02:47:22.924Z,72.24
2019-02-12T02:48:22.865Z,71.65
2019-02-12T02:49:22.857Z,72.24
2019-02-12T02:50:22.848Z,72.55
2019-02-12T02:51:22.830Z,72.55
2019-02-12T02:52:22.826Z,72.24
2019-02-12T02:53:22.849Z,72.55
2019-02-12T02:54:22.836Z,72.86
2019-02-12T02:55:22.818Z,72.76
2019-02-12T02:56:22.787Z,72.34
2019-02-12T02:57:22.776Z,72.24
2019-02-12T02:58:22.756Z,72.24
2019-02-12T02:59:22.794Z,72.45
2019-02-12T03:00:22.758Z,73.18
2019-02-12T03:01:22.734Z,72.34
2019-02-12T03:02:22.716Z,72.97
2019-02-12T03:03:22.746Z,72.66
2019-02-12T03:04:22.697Z,73.00
2019-02-12T03:05:22.709Z,72.66
2019-02-12T03:06:22.691Z,73.11
2019-02-12T03:07:22.668Z,73.60
2019-02-12T03:08:22.649Z,73.60
2019-02-12T03:09:22.690Z,72.76
2019-02-12T03:10:22.623Z,72.86
2019-02-12T03:11:22.618Z,72.97
2019-02-12T03:12:22.610Z,73.60
2019-02-12T03:13:22.599Z,73.60
2019-02-12T03:14:22.627Z,73.28
2019-02-12T03:15:22.575Z,73.28
2019-02-12T03:16:22.559Z,73.80
2019-02-12T03:17:22.559Z,73.28
2019-02-12T03:18:22.547Z,73.91
2019-02-12T03:19:22.575Z,74.43
2019-02-12T03:20:22.560Z,73.63
2019-02-12T03:21:22.531Z,74.22
2019-02-12T03:22:22.514Z,74.01
2019-02-12T03:23:22.505Z,74.57
2019-02-12T03:24:22.484Z,74.01
2019-02-12T03:25:22.466Z,73.70
2019-02-12T03:26:22.498Z,74.01
2019-02-12T03:27:22.448Z,74.11
2019-02-12T03:28:22.433Z,73.80
2019-02-12T03:29:22.455Z,74.11
2019-02-12T03:30:22.417Z,74.32
2019-02-12T03:31:22.406Z,73.80
2019-02-12T03:32:22.433Z,73.91
2019-02-12T03:33:22.426Z,74.46
2019-02-12T03:34:22.371Z,74.25
2019-02-12T03:35:22.354Z,73.42
2019-02-12T03:36:22.375Z,73.83
2019-02-12T03:37:22.343Z,73.83
2019-02-12T03:38:22.331Z,74.25
2019-02-12T03:39:22.313Z,74.46
2019-02-12T03:40:22.299Z,74.35
2019-02-12T03:41:22.326Z,74.39
2019-02-12T03:42:22.293Z,74.80
2019-02-12T03:43:22.280Z,74.35
2019-02-12T03:44:22.313Z,74.57
2019-02-12T03:45:22.258Z,74.39
2019-02-12T03:46:22.251Z,74.46
2019-02-12T03:47:22.233Z,74.67
2019-02-12T03:48:22.247Z,74.60
2019-02-12T03:49:22.248Z,74.60
2019-02-12T03:50:22.200Z,75.43
2019-02-12T03:51:22.198Z,75.22
2019-02-12T03:52:22.204Z,75.12
2019-02-12T03:53:22.266Z,75.36
2019-02-12T03:54:22.154Z,75.01
2019-02-12T03:55:22.137Z,75.43
2019-02-12T03:56:22.128Z,75.43
2019-02-12T03:57:22.126Z,75.12
2019-02-12T03:58:22.104Z,74.80
2019-02-12T03:59:22.126Z,74.70
2019-02-12T04:00:22.085Z,75.01
2019-02-12T04:01:22.082Z,74.70
2019-02-12T04:02:22.064Z,74.91
2019-02-12T04:03:22.053Z,75.12
2019-02-12T04:04:22.079Z,74.70
2019-02-12T04:05:22.037Z,75.05
2019-02-12T04:06:22.022Z,74.91
2019-02-12T04:07:22.012Z,74.70
2019-02-12T04:08:22.002Z,74.49
2019-02-12T04:09:22.024Z,74.80
2019-02-12T04:10:21.982Z,74.80
2019-02-12T04:11:24.287Z,75.12
2019-02-12T04:12:22.007Z,75.12
2019-02-12T04:13:21.939Z,74.91
2019-02-12T04:14:21.940Z,74.80
2019-02-12T04:15:21.968Z,75.12
2019-02-12T04:16:21.912Z,75.01
2019-02-12T04:17:21.898Z,75.12
2019-02-12T04:18:21.890Z,75.57
2019-02-12T04:19:21.879Z,75.26
2019-02-12T04:20:21.863Z,75.43
2019-02-12T04:21:21.973Z,75.43
2019-02-12T04:22:23.024Z,75.32
2019-02-12T04:23:21.833Z,75.22
2019-02-12T04:24:21.820Z,75.32
2019-02-12T04:25:21.884Z,75.57
2019-02-12T04:26:21.803Z,75.46
2019-02-12T04:27:21.792Z,75.32
2019-02-12T04:28:21.786Z,75.22
2019-02-12T04:29:21.768Z,75.32
2019-02-12T04:30:21.767Z,75.12
2019-02-12T04:31:21.775Z,75.43
2019-02-12T04:32:21.842Z,75.43
2019-02-12T04:33:21.729Z,75.22
2019-02-12T04:34:21.799Z,75.36
2019-02-12T04:35:21.707Z,75.46
2019-02-12T04:36:21.691Z,75.12
2019-02-12T04:37:21.681Z,74.60
2019-02-12T04:38:21.706Z,75.43
2019-02-12T04:39:21.661Z,75.32
2019-02-12T04:40:21.657Z,75.54
2019-02-12T04:41:21.642Z,75.43
2019-02-12T04:42:21.627Z,75.32
2019-02-12T04:43:21.705Z,75.32
2019-02-12T04:44:21.647Z,75.01
2019-02-12T04:45:21.593Z,75.22
2019-02-12T04:46:21.584Z,75.12
2019-02-12T04:47:21.577Z,75.12
2019-02-12T04:48:21.563Z,75.43
2019-02-12T04:49:21.600Z,75.01
2019-02-12T04:50:21.545Z,75.43
2019-02-12T04:51:21.538Z,75.43
2019-02-12T04:52:21.519Z,75.12
2019-02-12T04:53:21.499Z,75.12
2019-02-12T04:54:21.531Z,75.43
2019-02-12T04:55:21.503Z,75.01
2019-02-12T04:56:21.477Z,74.91
2019-02-12T04:57:21.475Z,74.80
2019-02-12T04:58:21.454Z,75.32
2019-02-12T04:59:21.437Z,75.22
2019-02-12T05:00:21.453Z,75.46
2019-02-12T05:01:21.444Z,75.32
2019-02-12T05:02:21.417Z,75.43
2019-02-12T05:03:21.392Z,75.12
2019-02-12T05:04:21.381Z,75.43
2019-02-12T05:05:21.405Z,75.43
2019-02-12T05:06:21.376Z,75.43
2019-02-12T05:07:21.408Z,75.67
2019-02-12T05:08:21.344Z,75.43
2019-02-12T05:09:21.325Z,75.64
2019-02-12T05:10:21.327Z,75.85
2019-02-12T05:11:21.335Z,75.54
2019-02-12T05:12:21.299Z,75.85
2019-02-12T05:13:21.340Z,75.64
2019-02-12T05:14:21.280Z,75.74
2019-02-12T05:15:21.274Z,75.54
2019-02-12T05:16:21.259Z,75.32
2019-02-12T05:17:21.257Z,75.19
2019-02-12T05:18:21.287Z,75.50
2019-02-12T05:19:21.213Z,75.64
2019-02-12T05:20:21.207Z,75.85
2019-02-12T05:21:21.192Z,75.54
2019-02-12T05:22:21.200Z,75.54
2019-02-12T05:23:21.241Z,75.74
2019-02-12T05:24:21.242Z,75.43
2019-02-12T05:25:21.152Z,76.68
2019-02-12T05:26:21.138Z,76.68
2019-02-12T05:27:21.129Z,76.78
2019-02-12T05:28:21.122Z,76.57
2019-02-12T05:29:21.147Z,76.68
2019-02-12T05:30:21.136Z,76.68
2019-02-12T05:31:21.084Z,76.47
2019-02-12T05:32:21.119Z,76.47
2019-02-12T05:33:21.074Z,76.78
2019-02-12T05:34:21.064Z,76.68
2019-02-12T05:35:21.075Z,76.47
2019-02-12T05:36:21.036Z,76.37
2019-02-12T05:37:21.021Z,76.78
2019-02-12T05:38:21.105Z,75.74
2019-02-12T05:39:21.002Z,76.78
2019-02-12T05:40:20.998Z,76.68
2019-02-12T05:41:20.985Z,76.78
2019-02-12T05:42:20.979Z,76.02
2019-02-12T05:43:20.972Z,76.68
2019-02-12T05:44:20.991Z,76.68
2019-02-12T05:45:20.930Z,76.64
2019-02-12T05:46:20.924Z,75.60
2019-02-12T05:47:20.917Z,76.75
2019-02-12T05:48:20.906Z,76.68
2019-02-12T05:49:20.891Z,76.23
2019-02-12T05:50:20.907Z,75.71
2019-02-12T05:51:20.871Z,76.75
2019-02-12T05:52:20.859Z,76.43
2019-02-12T05:53:20.875Z,75.92
2019-02-12T05:54:20.835Z,76.02
2019-02-12T05:55:20.822Z,75.81
2019-02-12T05:56:20.828Z,76.54
2019-02-12T05:57:20.849Z,76.64
2019-02-12T05:58:20.795Z,76.75
2019-02-12T05:59:20.817Z,76.54
2019-02-12T06:00:20.799Z,76.64
2019-02-12T06:01:20.763Z,76.51
2019-02-12T06:02:20.765Z,76.54
2019-02-12T06:03:20.749Z,76.40
2019-02-12T06:04:20.793Z,76.40
2019-02-12T06:05:20.717Z,76.54
2019-02-12T06:06:20.703Z,76.29
2019-02-12T06:07:20.692Z,76.40
2019-02-12T06:08:20.681Z,76.64
2019-02-12T06:09:20.670Z,76.61
2019-02-12T06:10:20.692Z,76.82
2019-02-12T06:11:20.687Z,76.09
2019-02-12T06:12:20.640Z,76.61
2019-02-12T06:13:20.633Z,75.67
2019-02-12T06:14:20.654Z,75.92
2019-02-12T06:15:20.641Z,76.61
2019-02-12T06:16:20.596Z,75.88
2019-02-12T06:17:20.590Z,75.67
2019-02-12T06:18:20.573Z,75.67
2019-02-12T06:19:20.568Z,75.67
2019-02-12T06:20:20.581Z,75.88
2019-02-12T06:21:20.613Z,75.78
2019-02-12T06:22:20.535Z,76.09
2019-02-12T06:23:20.535Z,75.67
2019-02-12T06:24:20.515Z,75.57
2019-02-12T06:25:20.510Z,75.46
2019-02-12T06:26:20.517Z,75.46
2019-02-12T06:27:20.476Z,75.15
2019-02-12T06:28:20.480Z,75.46
2019-02-12T06:29:20.466Z,75.78
2019-02-12T06:30:20.466Z,75.46
2019-02-12T06:31:20.593Z,75.57
2019-02-12T06:32:20.418Z,75.15
2019-02-12T06:33:20.418Z,74.95
2019-02-12T06:34:20.402Z,75.26
2019-02-12T06:35:20.386Z,74.84
2019-02-12T06:36:20.376Z,75.05
2019-02-12T06:37:20.397Z,75.26
2019-02-12T06:38:20.426Z,74.74
2019-02-12T06:39:20.369Z,75.05
2019-02-12T06:40:20.357Z,74.74
2019-02-12T06:41:20.320Z,74.63
2019-02-12T06:42:20.332Z,74.53
2019-02-12T06:43:20.367Z,74.63
2019-02-12T06:44:20.300Z,74.49
2019-02-12T06:45:20.288Z,74.11
2019-02-12T06:46:20.332Z,74.01
2019-02-12T06:47:20.265Z,73.66
2019-02-12T06:48:20.251Z,73.60
2019-02-12T06:49:20.281Z,74.63
2019-02-12T06:50:20.235Z,74.74
2019-02-12T06:51:20.220Z,73.49
2019-02-12T06:52:20.208Z,73.80
2019-02-12T06:53:20.192Z,74.11
2019-02-12T06:54:20.186Z,73.49
2019-02-12T06:55:20.226Z,74.18
2019-02-12T06:56:20.167Z,74.08
2019-02-12T06:57:20.153Z,74.43
2019-02-12T06:58:20.182Z,74.43
2019-02-12T06:59:20.129Z,73.80
2019-02-12T07:00:20.118Z,74.22
2019-02-12T07:01:20.129Z,73.91
2019-02-12T07:02:20.106Z,74.11
2019-02-12T07:03:20.116Z,74.22
2019-02-12T07:04:20.175Z,74.53
2019-02-12T07:05:20.066Z,74.29
2019-02-12T07:06:20.060Z,73.77
2019-02-12T07:07:20.051Z,73.77
2019-02-12T07:08:20.065Z,73.77
2019-02-12T07:09:20.023Z,73.66
2019-02-12T07:10:20.011Z,73.87
2019-02-12T07:11:20.022Z,73.04
2019-02-12T07:12:19.986Z,72.83
2019-02-12T07:13:19.980Z,73.66
2019-02-12T07:14:19.963Z,74.29
2019-02-12T07:15:20.015Z,73.46
2019-02-12T07:16:19.986Z,72.73
2019-02-12T07:17:19.933Z,73.87
2019-02-12T07:18:19.957Z,73.46
2019-02-12T07:19:19.908Z,73.14
2019-02-12T07:20:19.903Z,73.80
2019-02-12T07:21:19.967Z,72.97
2019-02-12T07:22:19.882Z,73.97
2019-02-12T07:23:21.584Z,73.46
2019-02-12T07:24:19.897Z,73.56
2019-02-12T07:25:19.853Z,72.94
2019-02-12T07:26:19.839Z,73.14
2019-02-12T07:27:19.853Z,73.25
2019-02-12T07:28:19.812Z,73.46
2019-02-12T07:29:19.948Z,73.25
2019-02-12T07:30:19.791Z,73.04
2019-02-12T07:31:19.824Z,73.25
2019-02-12T07:32:19.796Z,73.56
2019-02-12T07:33:19.761Z,73.35
2019-02-12T07:34:19.759Z,72.52
2019-02-12T07:35:19.755Z,72.94
2019-02-12T07:36:19.745Z,73.87
2019-02-12T07:37:19.775Z,72.83
2019-02-12T07:38:19.700Z,73.14
2019-02-12T07:39:19.692Z,73.04
2019-02-12T07:40:19.676Z,73.97
2019-02-12T07:41:20.588Z,73.04
2019-02-12T07:42:19.707Z,73.56
2019-02-12T07:43:19.644Z,73.56
2019-02-12T07:44:19.636Z,73.87
2019-02-12T07:45:19.700Z,74.08
2019-02-12T07:46:19.659Z,73.14
2019-02-12T07:47:19.601Z,73.25
2019-02-12T07:48:19.591Z,74.26
2019-02-12T07:49:19.592Z,73.32
2019-02-12T07:50:19.568Z,73.11
2019-02-12T07:51:19.582Z,73.11
2019-02-12T07:52:19.556Z,73.00
2019-02-12T07:53:19.564Z,73.74
2019-02-12T07:54:19.525Z,73.22
2019-02-12T07:55:19.520Z,73.53
2019-02-12T07:56:19.499Z,73.74
2019-02-12T07:57:19.518Z,73.74
2019-02-12T07:58:19.530Z,73.22
2019-02-12T07:59:19.470Z,73.11
2019-02-12T08:00:19.463Z,73.43
2019-02-12T08:01:19.450Z,73.22
2019-02-12T08:02:19.439Z,73.32
2019-02-12T08:03:19.453Z,73.46
2019-02-12T08:04:19.465Z,73.74
2019-02-12T08:05:19.407Z,73.00
2019-02-12T08:06:19.448Z,73.25
2019-02-12T08:07:19.401Z,73.87
2019-02-12T08:08:19.394Z,73.14
2019-02-12T08:09:19.355Z,73.97
2019-02-12T08:10:19.345Z,74.08
2019-02-12T08:11:19.339Z,73.97
2019-02-12T08:12:19.405Z,74.29
2019-02-12T08:13:19.343Z,73.14
2019-02-12T08:14:19.299Z,73.56
2019-02-12T08:15:19.296Z,73.56
2019-02-12T08:16:19.282Z,73.22
2019-02-12T08:17:19.301Z,73.04
2019-02-12T08:18:19.263Z,73.25
2019-02-12T08:19:19.290Z,73.66
2019-02-12T08:20:19.246Z,73.87
2019-02-12T08:21:19.236Z,73.14
2019-02-12T08:22:19.258Z,73.04
2019-02-12T08:23:19.216Z,73.14
2019-02-12T08:24:19.264Z,73.14
2019-02-12T08:25:19.209Z,73.46
2019-02-12T08:26:19.193Z,73.46
2019-02-12T08:27:19.160Z,73.56
2019-02-12T08:28:19.187Z,73.14
2019-02-12T08:29:19.135Z,73.46
2019-02-12T08:30:19.125Z,73.14
2019-02-12T08:31:19.136Z,73.22
2019-02-12T08:32:19.104Z,73.46
2019-02-12T08:33:19.103Z,73.56
2019-02-12T08:34:19.084Z,73.25
2019-02-12T08:35:19.162Z,73.46
2019-02-12T08:36:19.170Z,72.80
2019-02-12T08:37:19.058Z,73.22
2019-02-12T08:38:19.037Z,72.28
2019-02-12T08:39:19.074Z,72.73
2019-02-12T08:40:19.021Z,73.14
2019-02-12T08:41:19.043Z,72.69
2019-02-12T08:42:19.062Z,72.73
2019-02-12T08:43:18.996Z,72.31
2019-02-12T08:44:18.971Z,72.28
2019-02-12T08:45:18.985Z,72.11
2019-02-12T08:46:18.954Z,72.63
2019-02-12T08:47:18.936Z,72.59
2019-02-12T08:48:18.963Z,72.49
2019-02-12T08:49:18.927Z,71.45
2019-02-12T08:50:18.918Z,71.34
2019-02-12T08:51:18.894Z,71.76
2019-02-12T08:52:18.881Z,71.62
2019-02-12T08:53:18.924Z,71.21
2019-02-12T08:54:18.876Z,71.11
2019-02-12T08:55:18.848Z,71.00
2019-02-12T08:56:18.842Z,71.11
2019-02-12T08:57:18.837Z,71.21
2019-02-12T08:58:18.831Z,70.90
2019-02-12T08:59:18.866Z,70.69
2019-02-12T09:00:18.801Z,70.66
2019-02-12T09:01:18.788Z,70.90
2019-02-12T09:02:18.787Z,70.35
2019-02-12T09:03:18.762Z,70.45
2019-02-12T09:04:18.758Z,70.14
2019-02-12T09:05:18.776Z,70.25
2019-02-12T09:06:18.732Z,70.56
2019-02-12T09:07:18.719Z,70.25
2019-02-12T09:08:18.712Z,70.25
2019-02-12T09:09:18.698Z,70.56
2019-02-12T09:10:18.716Z,70.17
2019-02-12T09:11:18.677Z,70.17
2019-02-12T09:12:18.663Z,70.48
2019-02-12T09:13:18.657Z,70.48
2019-02-12T09:14:18.648Z,70.35
2019-02-12T09:15:18.674Z,70.14
2019-02-12T09:16:18.708Z,70.31
2019-02-12T09:17:18.611Z,70.10
2019-02-12T09:18:18.613Z,69.90
2019-02-12T09:19:18.602Z,69.10
2019-02-12T09:20:18.661Z,69.59
2019-02-12T09:21:18.579Z,68.96
2019-02-12T09:22:18.558Z,69.07
2019-02-12T09:23:18.545Z,69.31
2019-02-12T09:24:18.539Z,69.62
2019-02-12T09:25:18.612Z,69.31
2019-02-12T09:26:18.569Z,69.42
2019-02-12T09:27:18.507Z,69.38
2019-02-12T09:28:18.490Z,69.00
2019-02-12T09:29:18.490Z,69.42
2019-02-12T09:30:18.491Z,69.42
2019-02-12T09:31:18.517Z,69.42
2019-02-12T09:32:18.461Z,69.52
2019-02-12T09:33:18.439Z,69.52
2019-02-12T09:34:18.466Z,69.10
2019-02-12T09:35:18.412Z,69.42
2019-02-12T09:36:18.417Z,68.90
2019-02-12T09:37:18.455Z,69.17
2019-02-12T09:38:18.386Z,68.96
2019-02-12T09:39:18.395Z,68.13
2019-02-12T09:40:19.464Z,68.55
2019-02-12T09:41:18.353Z,68.24
2019-02-12T09:42:18.378Z,68.44
2019-02-12T09:43:18.373Z,68.24
2019-02-12T09:44:18.362Z,68.13
2019-02-12T09:45:18.310Z,67.61
2019-02-12T09:46:18.303Z,67.48
2019-02-12T09:47:18.327Z,67.30
2019-02-12T09:48:18.289Z,66.44
2019-02-12T09:49:18.293Z,67.10
2019-02-12T09:50:18.264Z,66.75
2019-02-12T09:51:18.258Z,66.35
2019-02-12T09:52:18.254Z,65.93
2019-02-12T09:53:18.220Z,66.35
2019-02-12T09:54:18.275Z,66.14
2019-02-12T09:55:18.204Z,65.93
2019-02-12T09:56:18.186Z,65.72
2019-02-12T09:57:18.195Z,64.79
2019-02-12T09:58:18.195Z,65.10
2019-02-12T09:59:18.165Z,63.96
2019-02-12T10:00:18.143Z,63.75
2019-02-12T10:01:18.153Z,63.93
2019-02-12T10:02:18.122Z,63.41
2019-02-12T10:03:18.111Z,63.31
2019-02-12T10:04:18.150Z,63.93
2019-02-12T10:05:18.094Z,63.41
2019-02-12T10:06:21.997Z,62.97
2019-02-12T10:07:19.066Z,62.58
2019-02-12T10:08:18.062Z,62.27
2019-02-12T10:09:18.080Z,62.14
2019-02-12T10:10:18.085Z,62.37
2019-02-12T10:11:18.034Z,60.89
2019-02-12T10:12:18.022Z,60.61
2019-02-12T10:13:18.012Z,60.61
2019-02-12T10:14:17.996Z,60.89
2019-02-12T10:15:18.005Z,60.48
2019-02-12T10:16:18.018Z,60.51
2019-02-12T10:17:17.967Z,60.38
2019-02-12T10:18:17.946Z,60.38
2019-02-12T10:19:17.933Z,59.27
2019-02-12T10:20:17.926Z,59.47
2019-02-12T10:21:17.915Z,59.47
2019-02-12T10:22:17.950Z,59.55
2019-02-12T10:23:17.889Z,59.68
2019-02-12T10:24:19.946Z,59.24
2019-02-12T10:25:17.881Z,59.45
2019-02-12T10:26:17.856Z,58.31
2019-02-12T10:27:17.845Z,58.31
2019-02-12T10:28:17.879Z,57.79
2019-02-12T10:29:17.836Z,58.20
2019-02-12T10:30:17.833Z,58.31
2019-02-12T10:31:17.805Z,58.51
2019-02-12T10:32:17.789Z,58.44
2019-02-12T10:33:17.801Z,58.44
2019-02-12T10:34:17.769Z,58.20
2019-02-12T10:35:17.758Z,58.51
2019-02-12T10:36:17.746Z,58.72
2019-02-12T10:37:18.142Z,57.87
2019-02-12T10:38:17.797Z,57.87
2019-02-12T10:39:17.730Z,57.94
2019-02-12T10:40:17.738Z,58.04
2019-02-12T10:41:17.735Z,56.60
2019-02-12T10:42:17.674Z,57.12
2019-02-12T10:43:17.676Z,56.91
2019-02-12T10:44:17.715Z,56.68
2019-02-12T10:45:17.641Z,56.16
2019-02-12T10:46:17.636Z,56.18
2019-02-12T10:47:17.707Z,54.43
2019-02-12T10:48:18.067Z,54.11
2019-02-12T10:49:17.601Z,54.35
2019-02-12T10:50:17.609Z,54.24
2019-02-12T10:51:17.581Z,54.45
2019-02-12T10:52:17.583Z,54.35
2019-02-12T10:53:17.554Z,54.63
2019-02-12T10:54:17.596Z,54.22
2019-02-12T10:55:17.539Z,54.63
2019-02-12T10:56:17.525Z,54.63
2019-02-12T10:57:17.539Z,54.43
2019-02-12T10:58:17.517Z,54.91
2019-02-12T10:59:17.502Z,55.35
2019-02-12T11:00:17.510Z,54.53
2019-02-12T11:01:17.478Z,55.77
2019-02-12T11:02:17.483Z,56.18
2019-02-12T11:03:17.454Z,55.98
2019-02-12T11:04:17.442Z,54.82
2019-02-12T11:05:17.465Z,55.35
2019-02-12T11:06:17.425Z,55.87
2019-02-12T11:07:17.413Z,56.05
2019-02-12T11:08:17.394Z,54.91
2019-02-12T11:09:17.395Z,54.38
2019-02-12T11:10:17.410Z,54.89
2019-02-12T11:11:17.364Z,53.55
2019-02-12T11:12:17.350Z,53.13
2019-02-12T11:13:17.351Z,52.31
2019-02-12T11:14:17.333Z,51.48
2019-02-12T11:15:17.376Z,51.89
2019-02-12T11:16:17.333Z,51.68
2019-02-12T11:17:17.308Z,51.89
2019-02-12T11:18:17.293Z,51.68
2019-02-12T11:19:17.282Z,50.86
2019-02-12T11:20:17.287Z,51.28
2019-02-12T11:21:17.282Z,51.79
2019-02-12T11:22:17.306Z,50.65
2019-02-12T11:23:17.238Z,51.37
2019-02-12T11:24:17.231Z,51.89
2019-02-12T11:25:17.270Z,52.51
2019-02-12T11:26:17.236Z,53.65
2019-02-12T11:27:17.342Z,54.06
2019-02-12T11:28:17.191Z,54.48
2019-02-12T11:29:17.173Z,54.17
2019-02-12T11:30:17.179Z,54.58
2019-02-12T11:31:17.158Z,54.48
2019-02-12T11:32:17.167Z,54.58
2019-02-12T11:33:17.132Z,54.48
2019-02-12T11:34:17.124Z,54.97
2019-02-12T11:35:17.103Z,54.55
2019-02-12T11:36:17.159Z,53.96
2019-02-12T11:37:17.119Z,53.55
2019-02-12T11:38:17.080Z,53.23
2019-02-12T11:39:17.067Z,53.44
2019-02-12T11:40:17.098Z,52.02
2019-02-12T11:41:17.045Z,52.12
2019-02-12T11:42:17.102Z,51.71
2019-02-12T11:43:17.023Z,51.40
2019-02-12T11:44:17.015Z,51.42
2019-02-12T11:45:17.004Z,51.63
2019-02-12T11:46:16.993Z,52.15
2019-02-12T11:47:16.984Z,51.63
2019-02-12T11:48:17.966Z,51.76
2019-02-12T11:49:16.958Z,52.38
2019-02-12T11:50:16.968Z,52.17
2019-02-12T11:51:16.949Z,53.62
2019-02-12T11:52:16.940Z,54.14
2019-02-12T11:53:16.924Z,53.83
2019-02-12T11:54:16.959Z,53.83
2019-02-12T11:55:16.893Z,54.35
2019-02-12T11:56:16.882Z,53.93
2019-02-12T11:57:16.872Z,53.70
2019-02-12T11:58:16.870Z,53.91
2019-02-12T11:59:16.848Z,54.22
2019-02-12T12:00:16.867Z,52.80
2019-02-12T12:01:16.826Z,52.98
2019-02-12T12:02:16.823Z,52.80
2019-02-12T12:03:16.874Z,52.36
2019-02-12T12:04:16.820Z,51.86
2019-02-12T12:05:16.830Z,52.38
2019-02-12T12:06:16.772Z,51.97
2019-02-12T12:07:16.761Z,52.38
2019-02-12T12:08:16.768Z,52.48
2019-02-12T12:09:16.780Z,53.08
2019-02-12T12:10:16.764Z,53.49
2019-02-12T12:11:16.711Z,53.59
2019-02-12T12:12:16.699Z,53.49
2019-02-12T12:13:16.695Z,53.70
2019-02-12T12:14:16.708Z,53.39
2019-02-12T12:15:16.702Z,52.36
2019-02-12T12:16:16.688Z,51.63
2019-02-12T12:17:16.662Z,51.94
2019-02-12T12:18:16.665Z,51.73
2019-02-12T12:19:16.712Z,52.15
2019-02-12T12:20:16.653Z,51.84
2019-02-12T12:21:16.604Z,51.71
2019-02-12T12:22:16.595Z,50.99
2019-02-12T12:23:16.581Z,50.89
2019-02-12T12:24:16.573Z,50.47
2019-02-12T12:25:16.632Z,50.26
2019-02-12T12:26:16.568Z,49.43
2019-02-12T12:27:16.540Z,49.64
2019-02-12T12:28:16.539Z,49.15
2019-02-12T12:29:16.516Z,49.77
2019-02-12T12:30:16.510Z,49.64
2019-02-12T12:31:16.534Z,50.05
2019-02-12T12:32:16.494Z,49.13
2019-02-12T12:33:16.469Z,49.64
2019-02-12T12:34:16.454Z,49.64
2019-02-12T12:35:16.448Z,49.43
2019-02-12T12:36:16.471Z,49.98
2019-02-12T12:37:16.491Z,50.80
2019-02-12T12:38:16.412Z,50.90
2019-02-12T12:39:16.401Z,51.63
2019-02-12T12:40:16.397Z,51.21
2019-02-12T12:41:16.470Z,51.53
2019-02-12T12:42:16.424Z,51.73
2019-02-12T12:43:16.364Z,51.63
2019-02-12T12:44:16.346Z,51.32
2019-02-12T12:45:16.340Z,50.90
2019-02-12T12:46:16.322Z,51.11
2019-02-12T12:47:16.365Z,51.63
2019-02-12T12:48:16.315Z,50.39
2019-02-12T12:49:16.348Z,49.15
2019-02-12T12:50:16.316Z,48.63
2019-02-12T12:51:16.312Z,48.63
2019-02-12T12:52:16.260Z,49.46